Time;durP1;ratioP1;P1;durP2;ratioP2;P2;SDS_P1;SDS_P2;PMS_P1;PMS_P2;Temp;Humidity;BMP_temperature;BMP_pressure;BME280_temperature;BME280_humidity;BME280_pressure;Samples;Min_cycle;Max_cycle;Signal;HPM_P1;HPM_P2
2023/04/21 00:00:26;;;;;;;26.17;17.02;;;8.90;99.90;;;;;;5109294;27;20042;-86
2023/04/21 00:02:51;;;;;;;21.52;16.45;;;8.90;99.90;;;;;;5111938;27;20088;-84
2023/04/21 00:05:17;;;;;;;24.63;17.48;;;8.90;99.90;;;;;;5111253;27;20036;-85
2023/04/21 00:07:43;;;;;;;23.05;16.35;;;8.90;99.90;;;;;;5110523;27;20047;-86
2023/04/21 00:10:10;;;;;;;24.52;16.45;;;8.90;99.90;;;;;;5111337;27;20393;-86
2023/04/21 00:12:36;;;;;;;25.92;17.13;;;9.00;99.90;;;;;;5125561;27;20043;-86
2023/04/21 00:15:03;;;;;;;23.30;16.88;;;8.90;99.90;;;;;;5129166;27;20415;-85
2023/04/21 00:17:29;;;;;;;23.80;15.75;;;8.90;99.90;;;;;;5111949;27;20085;-86
2023/04/21 00:19:55;;;;;;;24.88;16.25;;;8.90;99.90;;;;;;5110195;27;20043;-86
2023/04/21 00:22:21;;;;;;;25.67;15.88;;;8.90;99.90;;;;;;5094955;27;20103;-86
2023/04/21 00:24:47;;;;;;;22.20;16.58;;;8.90;99.90;;;;;;5110769;27;20645;-87
2023/04/21 00:27:14;;;;;;;22.20;15.27;;;8.90;99.90;;;;;;5129306;27;20043;-86
2023/04/21 00:29:40;;;;;;;21.00;15.63;;;9.00;99.90;;;;;;5107957;27;20118;-85
2023/04/21 00:32:09;;;;;;;20.70;15.25;;;8.90;99.90;;;;;;5126670;27;20134;-86
2023/04/21 00:34:35;;;;;;;23.85;14.73;;;8.90;99.90;;;;;;5093008;27;20096;-86
2023/04/21 00:37:02;;;;;;;25.52;15.25;;;8.80;99.90;;;;;;5106866;28;20047;-86
2023/04/21 00:39:27;;;;;;;19.10;14.38;;;8.80;99.90;;;;;;5103815;27;20035;-85
2023/04/21 00:41:53;;;;;;;22.27;15.60;;;8.80;99.90;;;;;;5094313;27;20129;-87
2023/04/21 00:44:19;;;;;;;23.00;14.90;;;8.80;99.90;;;;;;5093353;27;20134;-87
2023/04/21 00:46:44;;;;;;;21.17;14.75;;;8.80;99.90;;;;;;5093713;27;20093;-86
2023/04/21 00:49:12;;;;;;;21.73;14.82;;;8.70;99.90;;;;;;5105861;27;20047;-86
2023/04/21 00:51:40;;;;;;;21.58;14.30;;;8.70;99.90;;;;;;5108200;27;20047;-86
2023/04/21 00:54:08;;;;;;;19.95;13.85;;;9.20;99.90;;;;;;5096381;27;20047;-86
2023/04/21 00:56:35;;;;;;;22.73;14.85;;;8.70;99.90;;;;;;5110412;27;20047;-86
2023/04/21 00:59:03;;;;;;;22.33;14.57;;;8.60;99.90;;;;;;5109062;27;20057;-86
2023/04/21 01:01:31;;;;;;;19.35;13.85;;;8.60;99.90;;;;;;5109231;27;20043;-86
2023/04/21 01:04:00;;;;;;;19.02;13.40;;;8.60;99.90;;;;;;5087261;27;20093;-85
2023/04/21 01:06:33;;;;;;;21.00;14.48;;;8.60;99.90;;;;;;5110438;27;20526;-84
2023/04/21 01:09:03;;;;;;;19.70;13.85;;;8.60;99.90;;;;;;5097906;28;20039;-86
2023/04/21 01:11:30;;;;;;;18.60;13.77;;;8.50;99.90;;;;;;5090394;28;20472;-85
2023/04/21 01:13:56;;;;;;;21.25;13.40;;;8.50;99.90;;;;;;5073832;28;20047;-85
2023/04/21 01:16:22;;;;;;;21.08;13.60;;;8.50;99.90;;;;;;5089653;28;20047;-84
2023/04/21 01:18:49;;;;;;;17.15;12.65;;;8.50;99.90;;;;;;5107606;27;20433;-86
2023/04/21 01:21:20;;;;;;;19.80;13.70;;;8.50;99.90;;;;;;5102441;28;20051;-87
2023/04/21 01:24:08;;;;;;;20.13;12.75;;;8.60;99.90;;;;;;5110590;28;20094;-86
2023/04/21 01:26:34;;;;;;;18.58;12.55;;;8.50;99.90;;;;;;5110471;28;20047;-86
2023/04/21 01:29:00;;;;;;;19.02;13.05;;;8.60;99.90;;;;;;5093522;28;20043;-86
2023/04/21 01:31:26;;;;;;;14.35;12.30;;;8.70;99.90;;;;;;5110088;28;20126;-87
2023/04/21 01:33:51;;;;;;;15.98;13.02;;;8.70;99.90;;;;;;5091660;28;20043;-85
2023/04/21 01:36:17;;;;;;;22.13;13.15;;;8.70;99.90;;;;;;5128115;27;20397;-86
2023/04/21 01:38:43;;;;;;;20.52;12.90;;;8.70;99.90;;;;;;5107526;28;20600;-85
2023/04/21 01:41:09;;;;;;;18.23;13.18;;;8.70;99.90;;;;;;5093923;28;20073;-86
2023/04/21 01:43:36;;;;;;;17.63;13.15;;;8.70;99.90;;;;;;5129296;27;20047;-87
2023/04/21 01:46:02;;;;;;;17.55;14.07;;;8.70;99.90;;;;;;5096542;27;20058;-86
2023/04/21 01:48:28;;;;;;;23.45;12.45;;;9.10;99.90;;;;;;5110035;27;20111;-86
2023/04/21 01:50:54;;;;;;;15.43;12.20;;;8.70;99.90;;;;;;5113735;27;20430;-87
2023/04/21 01:53:19;;;;;;;19.83;12.70;;;8.70;99.90;;;;;;5111976;27;20039;-87
2023/04/21 01:55:45;;;;;;;17.98;12.45;;;8.70;99.90;;;;;;5095966;27;20508;-87
2023/04/21 01:58:10;;;;;;;19.80;12.00;;;8.70;99.90;;;;;;5111276;27;20051;-87
2023/04/21 02:00:36;;;;;;;19.65;12.63;;;8.70;99.90;;;;;;5110042;27;20039;-87
2023/04/21 02:03:02;;;;;;;18.88;13.27;;;8.70;99.90;;;;;;5131321;27;20049;-86
2023/04/21 02:05:28;;;;;;;15.75;12.50;;;8.70;99.90;;;;;;5113185;27;20050;-87
2023/04/21 02:07:54;;;;;;;18.42;12.68;;;8.70;99.90;;;;;;5112010;27;20054;-86
2023/04/21 02:10:20;;;;;;;19.63;12.48;;;9.30;99.90;;;;;;5112572;27;20074;-86
2023/04/21 02:12:45;;;;;;;15.43;12.15;;;8.60;99.90;;;;;;5124220;27;20439;-86
2023/04/21 02:15:11;;;;;;;16.42;12.50;;;8.60;99.90;;;;;;5111771;27;20043;-86
2023/04/21 02:17:37;;;;;;;17.77;12.38;;;8.90;99.90;;;;;;5130334;27;20576;-87
2023/04/21 02:20:04;;;;;;;17.73;11.52;;;8.60;99.90;;;;;;5095602;27;20074;-86
2023/04/21 02:22:31;;;;;;;16.90;12.18;;;8.60;99.90;;;;;;5112451;27;20175;-85
2023/04/21 02:24:56;;;;;;;17.73;12.35;;;8.60;99.90;;;;;;5115093;27;20043;-86
2023/04/21 02:27:22;;;;;;;17.85;12.25;;;8.50;99.90;;;;;;5095282;27;20127;-85
2023/04/21 02:29:47;;;;;;;16.35;11.80;;;8.50;99.90;;;;;;5089621;28;20529;-87
2023/04/21 02:32:13;;;;;;;14.25;11.45;;;8.50;99.90;;;;;;5113027;27;20047;-86
2023/04/21 02:34:40;;;;;;;18.67;11.65;;;8.70;99.90;;;;;;5091726;27;20418;-85
2023/04/21 02:37:06;;;;;;;17.48;12.23;;;8.50;99.90;;;;;;5130215;27;20155;-87
2023/04/21 02:39:32;;;;;;;16.70;12.52;;;8.50;99.90;;;;;;5111485;28;20069;-85
2023/04/21 02:41:57;;;;;;;17.50;11.75;;;8.50;99.90;;;;;;5094863;28;20558;-86
2023/04/21 02:44:23;;;;;;;17.05;12.20;;;8.50;99.90;;;;;;5109237;28;20043;-86
2023/04/21 02:46:48;;;;;;;15.90;11.57;;;8.50;99.90;;;;;;5079074;28;20134;-87
2023/04/21 02:49:17;;;;;;;14.85;10.73;;;8.50;99.90;;;;;;5093324;28;20039;-86
2023/04/21 02:51:42;;;;;;;18.25;11.40;;;8.50;99.90;;;;;;5110377;28;20035;-86
2023/04/21 02:54:08;;;;;;;22.70;11.10;;;8.50;99.90;;;;;;5110193;28;20043;-86
2023/04/21 02:56:33;;;;;;;18.75;11.77;;;8.50;99.90;;;;;;5111219;28;20039;-86
2023/04/21 02:58:59;;;;;;;21.35;11.65;;;8.50;99.90;;;;;;5108400;27;20039;-87
2023/04/21 03:01:25;;;;;;;20.45;12.35;;;8.50;99.90;;;;;;5093043;27;20238;-86
2023/04/21 03:03:50;;;;;;;17.20;11.77;;;8.50;99.90;;;;;;5110169;28;20042;-88
2023/04/21 03:06:16;;;;;;;18.55;11.73;;;8.50;99.90;;;;;;5110291;28;20423;-87
2023/04/21 03:08:42;;;;;;;15.45;11.35;;;8.50;99.90;;;;;;5094127;28;20065;-84
2023/04/21 03:11:07;;;;;;;16.33;11.30;;;8.50;99.90;;;;;;5110886;28;20092;-85
2023/04/21 03:13:33;;;;;;;14.00;11.48;;;8.50;99.90;;;;;;5093750;28;20096;-86
2023/04/21 03:15:58;;;;;;;17.77;11.48;;;9.30;99.90;;;;;;5095232;28;20047;-86
2023/04/21 03:18:24;;;;;;;19.30;12.60;;;8.50;99.90;;;;;;5106669;27;20118;-86
2023/04/21 03:20:50;;;;;;;17.45;12.38;;;8.50;99.90;;;;;;5108090;28;20067;-85
2023/04/21 03:23:19;;;;;;;16.45;11.75;;;8.80;99.90;;;;;;5092126;27;20039;-85
2023/04/21 03:25:44;;;;;;;16.70;12.18;;;8.50;99.90;;;;;;5111497;28;20046;-85
2023/04/21 03:28:10;;;;;;;14.18;11.05;;;8.50;99.90;;;;;;5103081;28;20047;-85
2023/04/21 03:30:36;;;;;;;15.52;12.13;;;8.40;99.90;;;;;;5089449;28;20592;-86
2023/04/21 03:33:02;;;;;;;17.25;12.18;;;8.40;99.90;;;;;;5110733;28;20123;-85
2023/04/21 03:35:27;;;;;;;16.60;12.07;;;9.10;99.90;;;;;;5109728;28;20043;-85
2023/04/21 03:37:53;;;;;;;16.65;12.48;;;8.50;99.90;;;;;;5072941;27;1078303;-84
2023/04/21 03:40:19;;;;;;;19.60;11.80;;;8.40;99.90;;;;;;5113059;27;20568;-85
2023/04/21 03:42:44;;;;;;;17.30;11.88;;;8.50;99.90;;;;;;5078828;27;20096;-87
2023/04/21 03:45:10;;;;;;;16.25;11.70;;;8.50;99.90;;;;;;5112166;27;20429;-84
2023/04/21 03:47:36;;;;;;;16.10;12.55;;;8.60;99.90;;;;;;5093470;27;20182;-85
2023/04/21 03:50:06;;;;;;;16.25;12.00;;;8.50;99.90;;;;;;5102624;27;20047;-84
2023/04/21 03:52:32;;;;;;;18.50;12.75;;;8.60;99.90;;;;;;5109986;27;20760;-86
2023/04/21 03:54:57;;;;;;;15.95;11.68;;;8.60;99.90;;;;;;5107152;27;20050;-85
2023/04/21 03:57:23;;;;;;;14.52;11.05;;;8.50;99.90;;;;;;5095547;27;20047;-84
2023/04/21 03:59:49;;;;;;;17.67;12.23;;;8.50;99.90;;;;;;5101446;28;20128;-85
2023/04/21 04:02:14;;;;;;;17.85;11.55;;;8.50;99.90;;;;;;5109685;28;20059;-85
2023/04/21 04:04:40;;;;;;;17.80;12.38;;;8.50;99.90;;;;;;5091530;28;20055;-86
2023/04/21 04:07:07;;;;;;;18.20;12.38;;;8.50;99.90;;;;;;5094526;27;20047;-85
2023/04/21 04:09:35;;;;;;;14.95;11.50;;;8.60;99.90;;;;;;5128911;27;20042;-85
2023/04/21 04:12:02;;;;;;;16.98;11.63;;;9.10;99.90;;;;;;5110818;27;20039;-85
2023/04/21 04:14:28;;;;;;;14.35;11.48;;;8.40;99.90;;;;;;5092922;27;20053;-85
2023/04/21 04:16:54;;;;;;;17.27;12.60;;;8.40;99.90;;;;;;5128801;27;20477;-85
2023/04/21 04:19:20;;;;;;;20.73;12.05;;;8.30;99.90;;;;;;5108717;27;20107;-85
2023/04/21 04:21:45;;;;;;;15.85;11.55;;;8.30;99.90;;;;;;5110367;27;20092;-85
2023/04/21 04:24:12;;;;;;;16.65;11.50;;;8.30;99.90;;;;;;5110039;27;20043;-84
2023/04/21 04:26:38;;;;;;;17.30;11.45;;;8.30;99.90;;;;;;5128801;27;20126;-84
2023/04/21 04:29:09;;;;;;;16.15;11.32;;;8.20;99.90;;;;;;5110455;27;20043;-84
2023/04/21 04:31:35;;;;;;;20.20;13.30;;;8.20;99.90;;;;;;5109730;27;20039;-84
2023/04/21 04:34:00;;;;;;;18.27;12.43;;;8.10;99.90;;;;;;5092141;27;20099;-85
2023/04/21 04:36:27;;;;;;;14.65;12.07;;;8.20;99.90;;;;;;5111096;27;20062;-85
2023/04/21 04:38:53;;;;;;;18.23;12.00;;;8.20;99.90;;;;;;5095104;28;20505;-86
2023/04/21 04:41:19;;;;;;;15.45;11.60;;;8.20;99.90;;;;;;5128316;27;20436;-85
2023/04/21 04:43:46;;;;;;;16.92;11.82;;;8.20;99.90;;;;;;5128552;27;20038;-85
2023/04/21 04:46:12;;;;;;;18.70;11.77;;;8.10;99.90;;;;;;5093466;27;20562;-86
2023/04/21 04:48:38;;;;;;;18.70;12.23;;;8.10;99.90;;;;;;5108651;27;20047;-85
2023/04/21 04:51:04;;;;;;;16.40;12.00;;;8.10;99.90;;;;;;5094046;28;20375;-85
2023/04/21 04:53:30;;;;;;;19.73;12.30;;;8.10;99.90;;;;;;5112304;27;20107;-86
2023/04/21 04:55:57;;;;;;;16.50;12.02;;;8.10;99.90;;;;;;5109091;27;20473;-85
2023/04/21 04:58:23;;;;;;;18.08;11.57;;;8.10;99.90;;;;;;5098899;27;20039;-85
2023/04/21 05:00:49;;;;;;;16.65;12.25;;;8.20;99.90;;;;;;5108157;27;20115;-86
2023/04/21 05:03:14;;;;;;;19.45;12.55;;;8.60;99.90;;;;;;5100295;28;20410;-85
2023/04/21 05:05:40;;;;;;;16.90;12.55;;;8.30;99.90;;;;;;5090745;28;20035;-85
2023/04/21 05:08:05;;;;;;;17.25;12.07;;;8.30;99.90;;;;;;5090376;27;20122;-85
2023/04/21 05:10:31;;;;;;;20.55;12.35;;;8.30;99.90;;;;;;5093219;28;20043;-86
2023/04/21 05:12:56;;;;;;;18.90;12.93;;;8.40;99.90;;;;;;5093311;27;20043;-86
2023/04/21 05:15:22;;;;;;;14.95;10.68;;;8.40;99.90;;;;;;5129007;27;20077;-85
2023/04/21 05:17:48;;;;;;;21.13;12.27;;;8.70;99.90;;;;;;5110682;27;20042;-85
2023/04/21 05:20:14;;;;;;;16.95;12.40;;;8.40;99.90;;;;;;5109557;27;20119;-86
2023/04/21 05:22:39;;;;;;;21.77;12.30;;;8.40;99.90;;;;;;5110467;27;20051;-85
2023/04/21 05:25:05;;;;;;;15.40;11.48;;;8.30;99.90;;;;;;5104381;28;20042;-85
2023/04/21 05:27:32;;;;;;;17.83;11.75;;;8.40;99.90;;;;;;5090549;28;20074;-85
2023/04/21 05:29:59;;;;;;;14.80;11.73;;;8.40;99.90;;;;;;5086300;28;20430;-86
2023/04/21 05:32:24;;;;;;;15.80;12.00;;;8.50;99.90;;;;;;5107115;28;20082;-85
2023/04/21 05:34:52;;;;;;;16.08;12.20;;;8.60;99.90;;;;;;5108931;28;20700;-86
2023/04/21 05:37:18;;;;;;;17.58;12.15;;;8.70;99.90;;;;;;5109735;27;20203;-86
2023/04/21 05:39:45;;;;;;;15.43;11.38;;;8.80;99.90;;;;;;5110194;28;20497;-86
2023/04/21 05:42:11;;;;;;;15.15;11.73;;;8.80;99.90;;;;;;5099068;28;20051;-87
2023/04/21 05:44:37;;;;;;;15.00;10.85;;;8.90;99.90;;;;;;5108766;28;20207;-87
2023/04/21 05:47:06;;;;;;;15.38;11.25;;;9.10;99.90;;;;;;5127206;28;20055;-86
2023/04/21 05:49:32;;;;;;;19.02;11.95;;;9.20;99.90;;;;;;5125422;27;20131;-87
2023/04/21 05:51:59;;;;;;;17.08;11.77;;;9.60;99.90;;;;;;5091551;28;20639;-87
2023/04/21 05:54:27;;;;;;;18.17;10.85;;;10.10;99.90;;;;;;5092502;28;20453;-87
2023/04/21 05:56:53;;;;;;;15.00;10.98;;;10.50;99.90;;;;;;5090952;28;20036;-86
2023/04/21 05:59:18;;;;;;;17.70;10.80;;;11.50;99.90;;;;;;5092594;28;20099;-86
2023/04/21 06:01:44;;;;;;;16.38;10.90;;;10.90;99.90;;;;;;5093475;28;20040;-87
2023/04/21 06:04:10;;;;;;;18.58;11.60;;;10.90;99.90;;;;;;5110533;28;20050;-86
2023/04/21 06:06:35;;;;;;;14.95;10.90;;;10.50;99.90;;;;;;5108868;28;20062;-87
2023/04/21 06:09:01;;;;;;;14.27;11.13;;;10.20;99.90;;;;;;5110399;28;20154;-87
2023/04/21 06:11:27;;;;;;;13.85;10.05;;;10.50;99.90;;;;;;5077824;28;20524;-87
2023/04/21 06:13:57;;;;;;;14.80;10.60;;;9.90;99.90;;;;;;5082841;28;20035;-87
2023/04/21 06:16:22;;;;;;;18.55;10.82;;;9.80;99.90;;;;;;5108983;28;20095;-87
2023/04/21 06:18:48;;;;;;;18.20;10.40;;;9.70;99.90;;;;;;5110446;28;20039;-87
2023/04/21 06:21:14;;;;;;;16.73;10.63;;;9.70;99.90;;;;;;5109137;27;20055;-85
2023/04/21 06:23:40;;;;;;;13.32;10.63;;;9.70;99.90;;;;;;5110030;28;20051;-87
2023/04/21 06:26:08;;;;;;;11.85;10.25;;;9.80;99.90;;;;;;5110121;28;20118;-84
2023/04/21 06:28:34;;;;;;;12.02;10.15;;;9.80;99.90;;;;;;5091599;28;20188;-85
2023/04/21 06:31:01;;;;;;;11.90;10.05;;;9.90;99.90;;;;;;5112727;27;20047;-85
2023/04/21 06:33:28;;;;;;;13.10;10.02;;;10.00;99.90;;;;;;5110671;27;20489;-85
2023/04/21 06:35:54;;;;;;;13.52;9.90;;;10.00;99.90;;;;;;5113881;27;20047;-84
2023/04/21 06:38:20;;;;;;;15.93;10.15;;;10.10;99.90;;;;;;5111165;27;20054;-84
2023/04/21 06:40:46;;;;;;;14.18;10.00;;;9.70;99.90;;;;;;5113243;27;20043;-85
2023/04/21 06:43:11;;;;;;;15.40;10.70;;;10.20;99.90;;;;;;5112845;27;20179;-87
2023/04/21 06:45:37;;;;;;;14.40;9.80;;;10.30;99.90;;;;;;5114080;27;20043;-84
2023/04/21 06:48:03;;;;;;;13.00;9.73;;;10.40;99.90;;;;;;5113973;27;20046;-85
2023/04/21 06:50:28;;;;;;;11.52;9.27;;;10.50;99.90;;;;;;5095419;27;20047;-86
2023/04/21 06:52:54;;;;;;;14.52;10.40;;;10.60;99.90;;;;;;5130191;27;20078;-88
2023/04/21 06:55:20;;;;;;;13.40;9.38;;;10.70;99.90;;;;;;5131196;27;20046;-86
2023/04/21 06:57:45;;;;;;;16.52;10.60;;;10.80;99.90;;;;;;5131576;27;20421;-87
2023/04/21 07:00:11;;;;;;;14.10;10.20;;;10.90;99.90;;;;;;5112838;27;20058;-86
2023/04/21 07:02:37;;;;;;;12.27;9.63;;;11.00;99.90;;;;;;5121697;27;20038;-86
2023/04/21 07:05:03;;;;;;;15.05;9.40;;;11.00;99.90;;;;;;5094307;27;20046;-87
2023/04/21 07:07:29;;;;;;;13.68;9.60;;;11.20;99.90;;;;;;5110851;27;20572;-86
2023/04/21 07:09:54;;;;;;;11.95;9.65;;;11.20;99.90;;;;;;5110574;27;20409;-86
2023/04/21 07:12:20;;;;;;;11.38;8.70;;;11.40;99.90;;;;;;5094233;27;20493;-86
2023/04/21 07:14:46;;;;;;;14.07;9.40;;;11.40;99.90;;;;;;5111360;27;20058;-86
2023/04/21 07:17:14;;;;;;;12.75;9.30;;;11.50;99.90;;;;;;5111277;27;20039;-86
2023/04/21 07:19:40;;;;;;;16.83;9.88;;;11.60;99.90;;;;;;5110423;27;20794;-87
2023/04/21 07:22:05;;;;;;;14.20;9.25;;;11.70;99.90;;;;;;5110531;27;20035;-87
2023/04/21 07:24:33;;;;;;;11.68;9.13;;;11.70;99.90;;;;;;5110714;27;20035;-86
2023/04/21 07:26:59;;;;;;;10.23;8.38;;;12.30;99.90;;;;;;5129543;27;20524;-86
2023/04/21 07:29:25;;;;;;;11.05;8.75;;;11.80;99.90;;;;;;5109963;27;20050;-86
2023/04/21 07:31:50;;;;;;;12.07;9.93;;;11.90;99.90;;;;;;5111529;27;20407;-87
2023/04/21 07:34:16;;;;;;;12.00;9.93;;;12.00;99.90;;;;;;5094063;27;20047;-87
2023/04/21 07:36:41;;;;;;;14.45;9.07;;;12.00;99.90;;;;;;5108361;28;20460;-86
2023/04/21 07:39:07;;;;;;;15.90;9.98;;;12.10;99.90;;;;;;5108443;28;20230;-86
2023/04/21 07:41:32;;;;;;;12.60;9.18;;;12.10;99.90;;;;;;5107345;28;20401;-86
2023/04/21 07:43:58;;;;;;;12.43;9.40;;;12.90;99.90;;;;;;5092153;28;20043;-86
2023/04/21 07:46:28;;;;;;;14.10;9.23;;;12.30;99.90;;;;;;5109672;28;20143;-86
2023/04/21 07:48:55;;;;;;;13.38;8.82;;;12.30;99.90;;;;;;5109186;28;20048;-86
2023/04/21 07:51:22;;;;;;;12.82;9.98;;;12.30;99.90;;;;;;5104305;28;20529;-86
2023/04/21 07:53:47;;;;;;;12.48;9.57;;;12.40;99.90;;;;;;5109501;28;20516;-86
2023/04/21 07:56:13;;;;;;;14.13;10.43;;;12.50;99.90;;;;;;5091197;28;20043;-86
2023/04/21 07:58:39;;;;;;;11.88;8.75;;;12.60;99.90;;;;;;5091967;28;20040;-86
2023/04/21 08:01:04;;;;;;;14.20;8.88;;;12.80;99.90;;;;;;5074469;28;20044;-88
2023/04/21 08:03:30;;;;;;;12.15;9.23;;;12.60;99.90;;;;;;5091542;28;20058;-88
2023/04/21 08:05:55;;;;;;;15.80;10.02;;;13.00;99.90;;;;;;5079927;27;20039;-87
2023/04/21 08:08:21;;;;;;;12.77;9.05;;;13.10;99.90;;;;;;5110775;27;20043;-88
2023/04/21 08:10:47;;;;;;;15.00;9.25;;;13.20;99.90;;;;;;5111710;27;20039;-87
2023/04/21 08:13:12;;;;;;;13.65;9.73;;;13.20;99.90;;;;;;5111327;27;20131;-87
2023/04/21 08:15:38;;;;;;;12.85;9.95;;;13.30;99.90;;;;;;5111404;27;20050;-87
2023/04/21 08:18:04;;;;;;;14.75;9.60;;;13.40;99.90;;;;;;5120961;27;20043;-87
2023/04/21 08:20:33;;;;;;;13.52;9.00;;;13.40;99.90;;;;;;5091096;28;20056;-87
2023/04/21 08:22:58;;;;;;;12.32;9.10;;;13.50;99.90;;;;;;5091371;28;20050;-86
2023/04/21 08:25:24;;;;;;;12.77;9.20;;;13.60;99.90;;;;;;5099659;27;20099;-86
2023/04/21 08:27:50;;;;;;;17.85;9.52;;;13.60;99.90;;;;;;5093895;27;20042;-86
2023/04/21 08:30:16;;;;;;;15.63;9.48;;;13.60;99.90;;;;;;5110571;27;20099;-86
2023/04/21 08:32:43;;;;;;;13.00;9.23;;;13.70;99.90;;;;;;5130147;27;20120;-87
2023/04/21 08:35:09;;;;;;;13.90;9.00;;;13.70;99.90;;;;;;5129403;27;20043;-86
2023/04/21 08:37:38;;;;;;;13.13;9.68;;;13.80;99.90;;;;;;5110764;27;20081;-85
2023/04/21 08:40:05;;;;;;;11.30;8.85;;;13.90;99.90;;;;;;5107370;27;20082;-86
2023/04/21 08:42:31;;;;;;;12.05;9.32;;;14.00;99.90;;;;;;5109511;27;20039;-86
2023/04/21 08:44:56;;;;;;;13.38;9.48;;;14.50;99.90;;;;;;5129720;27;20087;-85
2023/04/21 08:47:23;;;;;;;12.93;9.38;;;14.30;99.90;;;;;;5091815;27;20547;-86
2023/04/21 08:49:50;;;;;;;16.67;9.55;;;14.50;99.90;;;;;;5092024;27;20050;-86
2023/04/21 08:52:17;;;;;;;15.77;9.02;;;14.60;99.90;;;;;;5090728;27;20045;-85
2023/04/21 08:54:42;;;;;;;14.55;8.82;;;14.70;99.90;;;;;;5103218;27;20040;-86
2023/04/21 08:57:08;;;;;;;14.18;9.02;;;14.80;99.90;;;;;;5108938;27;20154;-86
2023/04/21 08:59:36;;;;;;;17.27;9.15;;;14.90;99.90;;;;;;5128145;27;20054;-86
2023/04/21 09:02:09;;;;;;;17.15;9.20;;;15.00;99.90;;;;;;5086237;27;20044;-87
2023/04/21 09:04:42;;;;;;;17.02;9.32;;;15.10;99.90;;;;;;5121788;27;20047;-85
2023/04/21 09:07:09;;;;;;;15.02;9.30;;;15.40;99.90;;;;;;5104028;27;20055;-85
2023/04/21 09:09:54;;;;;;;13.38;9.13;;;15.50;99.90;;;;;;5110862;27;20051;-85
2023/04/21 09:12:20;;;;;;;10.75;8.40;;;15.60;99.90;;;;;;5110193;27;20047;-84
2023/04/21 09:14:46;;;;;;;11.02;8.93;;;15.70;99.90;;;;;;5093316;27;20054;-83
2023/04/21 09:17:14;;;;;;;13.15;9.10;;;15.90;99.90;;;;;;5129032;27;20369;-82
2023/04/21 09:19:39;;;;;;;13.98;8.93;;;16.60;99.90;;;;;;5109517;27;20476;-82
2023/04/21 09:22:05;;;;;;;12.90;9.35;;;16.10;99.90;;;;;;5108976;28;20146;-83
2023/04/21 09:24:31;;;;;;;14.48;9.20;;;16.20;99.90;;;;;;5109817;28;20088;-83
2023/04/21 09:26:57;;;;;;;13.27;9.20;;;16.10;99.90;;;;;;5107635;27;20035;-83
2023/04/21 09:29:24;;;;;;;12.75;9.05;;;16.00;99.90;;;;;;5092507;28;20051;-83
2023/04/21 09:31:51;;;;;;;15.02;9.25;;;16.00;99.90;;;;;;5126716;28;20053;-84
2023/04/21 09:34:25;;;;;;;14.88;9.25;;;16.00;99.90;;;;;;5093168;28;20040;-82
2023/04/21 09:37:02;;;;;;;16.55;9.32;;;16.10;99.90;;;;;;5106071;28;20047;-84
2023/04/21 09:39:30;;;;;;;13.65;9.30;;;16.30;99.90;;;;;;5095141;28;20047;-84
2023/04/21 09:41:58;;;;;;;12.15;8.75;;;16.40;99.90;;;;;;5102800;28;20126;-83
2023/04/21 09:44:27;;;;;;;11.65;9.10;;;16.50;99.90;;;;;;5089364;28;20062;-81
2023/04/21 09:46:59;;;;;;;12.82;9.98;;;16.50;99.90;;;;;;5108614;28;20051;-82
2023/04/21 09:49:29;;;;;;;14.95;9.45;;;16.50;99.90;;;;;;5107371;28;20163;-82
2023/04/21 09:51:58;;;;;;;14.52;9.07;;;17.00;99.90;;;;;;5106957;28;20047;-82
2023/04/21 09:54:29;;;;;;;14.60;10.13;;;17.20;99.90;;;;;;5106359;28;20258;-82
2023/04/21 09:56:58;;;;;;;15.57;9.98;;;17.10;99.90;;;;;;5104609;28;20130;-81
2023/04/21 09:59:28;;;;;;;12.38;9.63;;;17.20;99.90;;;;;;5107440;28;20496;-81
2023/04/21 10:01:56;;;;;;;9.65;8.63;;;17.20;99.90;;;;;;5106483;28;20531;-81
2023/04/21 10:04:24;;;;;;;11.95;8.93;;;17.20;99.90;;;;;;5108208;28;20508;-81
2023/04/21 10:06:51;;;;;;;17.77;9.90;;;17.20;99.90;;;;;;5109658;28;20086;-81
2023/04/21 10:09:20;;;;;;;10.73;8.90;;;16.70;99.90;;;;;;5109812;28;20488;-80
2023/04/21 10:11:45;;;;;;;16.30;9.38;;;17.10;99.90;;;;;;5110989;28;20138;-81
2023/04/21 10:14:12;;;;;;;10.68;8.88;;;17.10;99.90;;;;;;5108055;28;20803;-80
2023/04/21 10:16:38;;;;;;;13.68;9.88;;;17.10;99.90;;;;;;5094035;28;20063;-82
2023/04/21 10:19:26;;;;;;;14.43;10.18;;;17.20;99.90;;;;;;5088605;28;20490;-82
2023/04/21 10:21:56;;;;;;;12.48;10.05;;;17.40;99.90;;;;;;5090339;28;20048;-83
2023/04/21 10:24:22;;;;;;;15.60;9.55;;;17.60;99.90;;;;;;5099023;28;20469;-82
2023/04/21 10:26:49;;;;;;;12.70;9.57;;;17.40;99.90;;;;;;5105764;28;20856;-81
2023/04/21 10:29:15;;;;;;;10.65;9.25;;;17.40;99.60;;;;;;5109054;28;20040;-82
2023/04/21 10:31:51;;;;;;;11.57;8.98;;;17.50;98.40;;;;;;5109247;28;20372;-82
2023/04/21 10:34:28;;;;;;;11.02;8.95;;;17.70;96.30;;;;;;5090972;28;20083;-82
2023/04/21 10:36:54;;;;;;;13.40;8.95;;;17.80;97.60;;;;;;5109266;28;20052;-81
2023/04/21 10:39:37;;;;;;;15.23;9.98;;;18.00;97.20;;;;;;5087453;28;20048;-83
2023/04/21 10:42:12;;;;;;;11.82;10.07;;;18.00;93.90;;;;;;5089697;28;20410;-82
2023/04/21 10:44:41;;;;;;;14.13;9.40;;;18.00;95.40;;;;;;5106226;28;20386;-82
2023/04/21 10:47:07;;;;;;;11.73;9.23;;;17.90;94.40;;;;;;5109218;28;20074;-81
2023/04/21 10:49:38;;;;;;;11.68;9.10;;;17.70;94.20;;;;;;5109172;28;20039;-82
2023/04/21 10:52:05;;;;;;;12.60;9.70;;;17.60;94.20;;;;;;5111106;28;20044;-81
2023/04/21 10:54:46;;;;;;;11.13;9.73;;;17.90;94.70;;;;;;5109490;28;20081;-82
2023/04/21 10:57:18;;;;;;;13.30;10.23;;;17.40;94.80;;;;;;5103148;28;20035;-81
2023/04/21 10:59:46;;;;;;;13.15;9.30;;;17.50;94.80;;;;;;5105560;28;20087;-82
2023/04/21 11:02:13;;;;;;;12.38;9.32;;;17.40;95.70;;;;;;5109173;28;20131;-82
2023/04/21 11:04:43;;;;;;;12.55;9.05;;;17.40;95.90;;;;;;5106996;28;20118;-82
2023/04/21 11:07:13;;;;;;;10.43;8.77;;;17.60;96.30;;;;;;5109377;28;20066;-83
2023/04/21 11:09:40;;;;;;;14.32;10.20;;;17.90;95.20;;;;;;5091668;28;20051;-83
2023/04/21 11:12:08;;;;;;;10.73;9.43;;;18.20;95.00;;;;;;5109281;28;20116;-81
2023/04/21 11:14:36;;;;;;;11.25;8.82;;;18.30;93.50;;;;;;5108161;28;20161;-82
2023/04/21 11:17:03;;;;;;;10.95;8.23;;;18.40;93.10;;;;;;5108724;28;20078;-82
2023/04/21 11:19:31;;;;;;;12.25;8.43;;;18.40;92.20;;;;;;5108916;28;20040;-83
2023/04/21 11:21:57;;;;;;;11.40;8.30;;;18.30;90.80;;;;;;5108574;28;20047;-83
2023/04/21 11:24:23;;;;;;;11.85;8.23;;;18.30;91.20;;;;;;5108407;28;20047;-82
2023/04/21 11:26:48;;;;;;;13.25;8.20;;;18.30;90.90;;;;;;5091853;28;20074;-82
2023/04/21 11:29:14;;;;;;;9.10;7.82;;;18.30;90.80;;;;;;5108481;28;20785;-81
2023/04/21 11:31:43;;;;;;;10.90;7.50;;;18.30;90.70;;;;;;5108690;28;20187;-83
2023/04/21 11:34:08;;;;;;;10.63;7.75;;;18.50;90.30;;;;;;5110009;28;20046;-82
2023/04/21 11:36:42;;;;;;;8.73;6.57;;;18.50;88.00;;;;;;5109262;28;20480;-81
2023/04/21 11:39:12;;;;;;;8.93;7.50;;;18.90;87.50;;;;;;5091368;28;20568;-82
2023/04/21 11:41:43;;;;;;;9.98;7.10;;;18.90;86.10;;;;;;5089552;28;20131;-82
2023/04/21 11:44:09;;;;;;;10.05;7.22;;;19.10;85.20;;;;;;5088857;28;20047;-81
2023/04/21 11:46:36;;;;;;;9.88;6.50;;;19.30;84.30;;;;;;5088424;28;20046;-83
2023/04/21 11:49:11;;;;;;;10.18;7.03;;;19.40;82.50;;;;;;5087776;28;20543;-83
2023/04/21 11:51:42;;;;;;;9.73;6.40;;;19.80;75.90;;;;;;5087770;28;20105;-83
2023/04/21 11:54:09;;;;;;;11.98;7.03;;;19.90;70.60;;;;;;5071549;28;20043;-82
2023/04/21 11:56:40;;;;;;;9.63;6.30;;;20.00;77.10;;;;;;5088785;28;20093;-81
2023/04/21 11:59:08;;;;;;;11.45;6.80;;;20.20;71.10;;;;;;5088424;28;20040;-82
2023/04/21 12:01:34;;;;;;;10.98;6.63;;;20.30;71.90;;;;;;5087549;28;20515;-82
2023/04/21 12:04:02;;;;;;;9.02;6.15;;;20.40;72.00;;;;;;5087640;28;20109;-83
2023/04/21 12:06:28;;;;;;;9.02;6.05;;;20.50;68.60;;;;;;5087453;28;20040;-83
2023/04/21 12:08:56;;;;;;;9.52;6.60;;;20.30;70.40;;;;;;5088576;28;20059;-83
2023/04/21 12:11:23;;;;;;;9.10;6.13;;;20.00;69.40;;;;;;5109072;28;20082;-82
2023/04/21 12:13:49;;;;;;;12.27;5.60;;;20.70;67.50;;;;;;5108268;28;20039;-83
2023/04/21 12:16:14;;;;;;;6.18;4.68;;;20.10;67.40;;;;;;5108272;28;20058;-83
2023/04/21 12:18:41;;;;;;;8.20;5.07;;;20.00;67.30;;;;;;5105759;28;20046;-83
2023/04/21 12:21:07;;;;;;;8.55;5.43;;;19.90;66.90;;;;;;5106086;28;20104;-83
2023/04/21 12:23:32;;;;;;;6.78;5.88;;;19.80;67.90;;;;;;5089258;28;20043;-84
2023/04/21 12:25:59;;;;;;;9.07;5.38;;;19.70;67.00;;;;;;5106519;28;20500;-84
2023/04/21 12:28:25;;;;;;;8.98;5.47;;;19.50;65.90;;;;;;5086970;28;20109;-84
2023/04/21 12:30:50;;;;;;;7.30;4.82;;;19.50;65.30;;;;;;5086478;28;20479;-84
2023/04/21 12:33:16;;;;;;;8.90;5.25;;;19.60;66.10;;;;;;5086314;28;20085;-82